In Rescue
 
Open Full Screen Window  High Contrast Mode
Wind Gusting 15 knots
09
October 25, 2021 4:17 PM EDT
Present Weather: Light Drizzle
Weather Information
Wind Direction
  360 °
Wind Speed
  09 kt (10 mph)
Wind Gust
  15 kt (17 mph)
Altimeter
29.83 in
Visibility
10 SM
Temperature
08° C
46° F
Dewpoint
07° C
45° F
Humidity
93%
Sky Condition
Overcast @ 1,300 ft
MVFR

METAR KHAI 252017Z AUTO 36009G15KT 10SM -DZ OVC013 08/07 A2983 RMK AO2 T00830066

FAA Disclaimer: The data displayed is for advisory purposes only and is not to be used for flight planning or operations.